Station: North Island  

  Atmospheric Gas Attenuation - ITU Rec 676-11   ----------------- dB/100km -----------------
Date Time Temp RH % AH g/m3 Dew Point Wind Direction Speed kph Gust kph Barometer mB Rainfall Since 9am 24GHz 47GHz 76GHz 122GHz 134GHz 241GHz
08/05 09:20 22.1 45 8.78 9.6 37 41 1024.1 0 19.6 24.3 37.0 96.9 91.5 315.3
08/05 09:10 22 48 9.32 10.5 35 41 1024.1 0 20.7 25.1 39.0 102.3 98.2 338.5
08/05 09:00 22 49 9.51 10.8 35 44 1024 0 21.1 25.4 39.7 104.2 100.5 346.7
08/05 08:50 21.9 50 9.65 11 35 43 1024 0 21.4 25.6 40.3 105.7 102.3 353.1
08/05 08:40 21.6 52 9.86 11.3 37 41 1023.9 0 21.8 26.0 41.2 108.3 105.3 363.6
08/05 08:30 21.5 51 9.62 10.9 39 52 1023.9 0 21.4 25.7 40.4 106.0 102.5 353.6
08/05 08:20 21.3 51 9.51 10.8 41 50 1023.9 0 21.1 25.6 40.1 105.1 101.4 349.7
08/05 08:10 21.2 52 9.64 11 39 44 1023.8 0 21.4 25.8 40.6 106.6 103.1 355.7
08/05 08:00 21 51 9.34 10.5 37 48 1023.7 0 20.8 25.4 39.6 103.8 99.6 343.5
08/05 07:50 20.9 52 9.47 10.7 39 46 1023.7 0 21.1 25.6 40.1 105.2 101.4 349.6
08/05 07:40 20.7 52 9.36 10.5 41 46 1023.6 0 20.8 25.5 39.8 104.4 100.2 345.7
08/05 07:30 20.6 51 9.13 10.1 37 48 1023.6 0 20.4 25.2 39.0 102.2 97.5 336.1
08/05 07:20 20.4 52 9.2 10.2 39 44 1023.5 0 20.5 25.3 39.3 103.1 98.6 340.0
08/05 07:10 20.3 56 9.85 11.2 28 39 1023.5 0 21.9 26.4 41.9 109.9 106.9 369.0
08/05 07:00 20.3 55 9.67 11 35 46 1023.5 0 21.5 26.1 41.2 108.0 104.6 361.0
08/05 06:50 20.3 56 9.85 11.2 30 35 1023.4 0 21.9 26.4 41.8 109.9 106.9 369.0
08/05 06:40 20.4 54 9.55 10.8 33 43 1023.1 0 21.3 25.9 40.6 106.6 103.0 355.2
08/05 06:30 20.5 53 9.43 10.6 39 48 1023.1 0 21.0 25.6 40.1 105.3 101.3 349.5
08/05 06:20 20.5 55 9.79 11.2 32 37 1022.9 0 21.8 26.2 41.5 108.9 105.8 365.2
08/05 06:10 20.6 54 9.66 11 37 41 1022.9 0 21.5 26.0 40.9 107.5 104.1 359.1
08/05 06:00 20.5 53 9.43 10.6 39 50 1022.9 0 21.0 25.6 40.1 105.3 101.3 349.4
08/05 05:50 20.6 50 8.95 9.8 43 46 1022.8 0 20.0 24.9 38.3 100.3 95.2 328.1
08/05 05:40 20.6 50 8.95 9.8 43 46 1022.8 0 20.0 24.9 38.3 100.3 95.2 328.1
08/05 05:30 20.6 53 9.48 10.7 39 50 1022.8 0 21.1 25.7 40.3 105.6 101.8 351.1
08/05 05:20 20.8 50 9.05 10 41 50 1022.7 0 20.2 25.0 38.5 101.0 96.2 331.6
08/05 05:10 20.7 51 9.18 10.2 37 44 1022.7 0 20.5 25.2 39.1 102.5 97.9 337.6
08/05 05:00 20.5 54 9.61 10.9 35 44 1022.7 0 21.4 25.9 40.8 107.1 103.5 357.2
08/05 04:50 20.6 52 9.31 10.4 35 43 1022.7 0 20.7 25.4 39.6 103.9 99.7 343.7
08/05 04:40 20.7 50 9 9.9 37 43 1022.6 0 20.1 24.9 38.4 100.7 95.7 329.8
08/05 04:30 20.7 50 9 9.9 37 52 1022.5 0 20.1 24.9 38.4 100.6 95.7 329.8
08/05 04:20 20.8 48 8.69 9.4 41 46 1022.4 0 19.4 24.4 37.2 97.4 91.8 316.1
08/05 04:10 20.8 47 8.51 9.1 44 54 1022.4 0 19.1 24.1 36.5 95.7 89.6 308.5
08/05 04:00 21 50 9.16 10.2 32 41 1022.5 0 20.4 25.1 38.8 101.9 97.3 335.4
08/05 03:50 20.9 49 8.92 9.8 32 35 1022.5 0 19.9 24.7 38.0 99.6 94.5 325.6
08/05 03:40 20.9 50 9.11 10.1 35 43 1022.5 0 20.3 25.0 38.7 101.5 96.8 333.7
08/05 03:30 20.9 50 9.11 10.1 32 44 1022.5 0 20.3 25.0 38.7 101.5 96.8 333.7
08/05 03:20 20.8 48 8.69 9.4 35 39 1022.6 0 19.4 24.4 37.2 97.5 91.8 316.2
08/05 03:10 20.8 50 9.05 10 33 43 1022.5 0 20.2 25.0 38.5 101.0 96.2 331.5
08/05 03:00 20.9 49 8.92 9.8 33 44 1022.5 0 19.9 24.7 38.0 99.6 94.5 325.6
08/05 02:50 20.8 48 8.69 9.4 35 43 1022.6 0 19.4 24.4 37.2 97.5 91.8 316.2
08/05 02:40 20.8 51 9.23 10.3 32 37 1022.5 0 20.6 25.2 39.2 102.8 98.4 339.3
08/05 02:30 20.8 50 9.05 10 35 44 1022.6 0 20.2 25.0 38.5 101.0 96.2 331.6
08/05 02:20 21 49 8.98 9.9 32 39 1022.6 0 20.0 24.8 38.2 100.1 95.1 327.7
08/05 02:10 21 48 8.79 9.6 39 48 1022.6 0 19.6 24.5 37.5 98.2 92.8 319.6
08/05 02:00 21.4 48 9 9.9 37 46 1022.6 0 20.1 24.7 38.1 99.8 94.9 327.0
08/05 01:50 21.4 48 9 9.9 39 48 1022.6 0 20.1 24.7 38.1 99.8 94.9 327.0
08/05 01:40 21.5 46 8.67 9.4 41 46 1022.7 0 19.4 24.2 36.8 96.4 90.8 312.6
08/05 01:30 21.5 49 9.24 10.3 35 46 1022.7 0 20.6 25.1 38.9 102.0 97.7 336.8
08/05 01:20 21.4 48 9 9.9 37 43 1022.7 0 20.1 24.7 38.1 99.8 94.9 327.0
08/05 01:10 21.5 50 9.43 10.6 35 46 1022.7 0 21.0 25.3 39.6 103.9 100.0 345.0
08/05 01:00 21.4 49 9.19 10.3 33 44 1022.7 0 20.5 25.0 38.8 101.7 97.2 335.1
08/05 00:50 21.6 48 9.1 10.1 35 41 1022.7 0 20.3 24.8 38.3 100.5 95.8 330.4
08/05 00:40 21.8 46 8.82 9.7 35 44 1022.7 0 19.7 24.4 37.2 97.5 92.2 317.8
08/05 00:30 21.9 48 9.26 10.4 35 43 1022.8 0 20.6 25.0 38.8 101.7 97.4 336.0
08/05 00:20 21.9 49 9.45 10.7 35 39 1022.7 0 21.0 25.3 39.5 103.6 99.8 344.2
08/05 00:10 21.8 52 9.98 11.5 32 39 1022.7 0 22.1 26.1 41.5 109.1 106.4 367.6
08/05 00:00 21.9 52 10.03 11.6 37 46 1022.7 0 22.2 26.1 41.7 109.4 106.9 369.3
07/05 23:50 21.8 50 9.59 10.9 33 41 1022.8 0 21.3 25.5 40.1 105.2 101.6 350.6
07/05 23:40 21.8 54 10.36 12.1 28 33 1022.8 0 22.9 26.7 43.0 113.0 111.2 384.3
07/05 23:30 22 50 9.7 11.1 35 44 1022.8 0 21.5 25.6 40.4 106.0 102.7 354.5
07/05 23:20 22.1 51 9.95 11.5 37 43 1023 0 22.0 26.0 41.3 108.4 105.7 365.0
07/05 23:10 22.2 47 9.23 10.4 41 48 1023 0 20.5 24.9 38.5 101.1 96.7 333.6
07/05 23:00 22.3 47 9.28 10.5 35 48 1023 0 20.6 24.9 38.7 101.5 97.2 335.3
07/05 22:50 22.2 54 10.6 12.5 32 41 1023.1 0 23.4 27.0 43.7 114.9 113.7 393.1
07/05 22:40 22.2 51 10.01 11.6 35 41 1023.2 0 22.1 26.0 41.5 108.9 106.3 367.2
07/05 22:30 22.2 54 10.6 12.5 33 43 1023.3 0 23.4 27.0 43.7 114.9 113.7 393.2
07/05 22:20 22.2 53 10.4 12.2 28 32 1023.3 0 23.0 26.7 43.0 112.9 111.2 384.3
07/05 22:10 22.3 53 10.46 12.3 32 37 1023.2 0 23.1 26.7 43.1 113.3 111.8 386.5
07/05 22:00 22.4 52 10.33 12.1 33 41 1023.2 0 22.8 26.5 42.6 111.9 110.0 380.3
07/05 21:50 22.3 53 10.46 12.3 33 39 1023.1 0 23.1 26.7 43.1 113.3 111.8 386.4
07/05 21:40 22.2 55 10.8 12.7 32 39 1023.1 0 23.8 27.3 44.5 117.0 116.3 402.0
07/05 21:30 22.4 55 10.92 12.9 32 41 1023 0 24.0 27.4 44.8 117.9 117.5 406.3
07/05 21:20 22.3 56 11.06 13.1 26 32 1023 0 24.3 27.6 45.4 119.5 119.5 413.1
07/05 21:10 22.7 58 11.72 14 30 33 1022.9 0 25.7 28.6 47.8 125.8 127.4 440.9
07/05 21:00 22.7 53 10.71 12.6 28 35 1022.8 0 23.6 27.0 43.9 115.3 114.4 395.4
07/05 20:50 22.7 56 11.31 13.5 26 30 1022.7 0 24.8 27.9 46.2 121.5 122.0 422.2
07/05 20:40 22.7 55 11.11 13.2 28 33 1022.5 0 24.4 27.6 45.4 119.4 119.4 413.1
07/05 20:30 22.5 57 11.38 13.6 26 33 1022.5 0 25.0 28.1 46.6 122.5 123.2 426.4
07/05 20:20 22 64 12.42 14.9 26 30 1022.4 0 27.2 29.9 51.1 134.5 137.8 477.2
07/05 20:10 22 68 13.2 15.8 22 26 1022.3 0 28.9 31.2 54.3 143.1 148.4 514.3
07/05 20:00 21.8 69 13.24 15.9 22 28 1022.2 0 29.0 31.4 54.6 143.9 149.4 517.6
07/05 19:50 21.8 69 13.24 15.9 22 24 1022.1 0 29.0 31.4 54.6 143.9 149.3 517.5
07/05 19:40 21.8 71 13.62 16.3 22 24 1022 0 29.8 32.0 56.2 148.2 154.6 536.0
07/05 19:30 21.9 68 13.12 15.7 26 32 1021.8 0 28.7 31.1 54.0 142.3 147.5 510.9
07/05 19:20 21.7 69 13.16 15.8 24 28 1021.7 0 28.8 31.2 54.3 143.1 148.4 514.2
07/05 19:10 21.8 68 13.05 15.6 26 30 1021.6 0 28.6 31.0 53.8 141.7 146.7 508.2
07/05 19:00 21.7 70 13.35 16 28 33 1021.6 0 29.2 31.6 55.1 145.3 151.0 523.3
07/05 18:50 21.7 69 13.16 15.8 26 32 1021.6 0 28.8 31.2 54.3 143.1 148.4 514.1
07/05 18:40 21.7 67 12.78 15.3 28 32 1021.5 0 28.0 30.6 52.7 138.9 143.1 495.8
07/05 18:30 21.7 64 12.21 14.6 30 37 1021.3 0 26.8 29.6 50.3 132.6 135.4 468.8
07/05 18:20 21.7 65 12.4 14.8 28 32 1021.3 0 27.2 29.9 51.1 134.6 137.9 477.7
07/05 18:10 21.6 63 11.95 14.3 30 33 1021.2 0 26.3 29.2 49.3 129.9 132.1 457.2
07/05 18:00 21.8 63 12.09 14.4 32 39 1021.1 0 26.5 29.4 49.8 131.1 133.6 462.5
07/05 17:50 21.8 60 11.51 13.9 30 33 1021 0 25.3 28.4 47.4 124.8 125.9 435.6
07/05 17:40 21.9 60 11.58 13.8 28 33 1020.9 0 25.5 28.5 47.6 125.4 126.6 438.2
07/05 17:30 22 59 11.45 13.6 32 39 1020.9 0 25.2 28.3 47.1 123.8 124.8 431.7
07/05 17:20 22.2 57 11.19 13.5 33 37 1020.9 0 24.6 27.8 45.9 120.8 121.1 418.8
07/05 17:10 22.5 59 11.78 14.1 30 35 1020.9 0 25.8 28.7 48.1 126.6 128.3 444.0
07/05 17:00 22.7 55 11.11 13.2 32 43 1020.9 0 24.4 27.5 45.3 119.2 119.3 412.6
07/05 16:50 22.9 55 11.24 13.4 30 35 1020.8 0 24.7 27.7 45.7 120.2 120.6 417.4

Last Refresh: 08-May-2026 11:03:35

Bureau of Meteorology